Time;durP1;ratioP1;P1;durP2;ratioP2;P2;SDS_P1;SDS_P2;PMS_P1;PMS_P2;Temp;Humidity;BMP_temperature;BMP_pressure;BME280_temperature;BME280_humidity;BME280_pressure;Samples;Min_cycle;Max_cycle;Signal;HPM_P1;HPM_P2
2021/10/08 00:02:08;;;;;;;5.17;2.60;;;23.30;54.00;;;;;;6264338;23;20369;-81
2021/10/08 00:04:36;;;;;;;3.60;2.97;;;23.30;53.90;;;;;;6238456;23;20161;-81
2021/10/08 00:07:02;;;;;;;4.90;3.27;;;23.30;54.00;;;;;;6264618;23;20153;-81
2021/10/08 00:09:29;;;;;;;5.37;2.90;;;23.30;54.00;;;;;;6237242;23;20419;-81
2021/10/08 00:11:56;;;;;;;4.73;3.30;;;23.30;54.00;;;;;;6237701;23;20392;-81
2021/10/08 00:14:26;;;;;;;4.67;3.07;;;23.30;54.00;;;;;;6238243;23;20384;-81
2021/10/08 00:16:53;;;;;;;5.60;2.93;;;23.30;54.00;;;;;;6264562;23;20413;-81
2021/10/08 00:19:19;;;;;;;4.37;3.20;;;23.30;54.00;;;;;;6237828;23;20386;-81
2021/10/08 00:21:45;;;;;;;4.90;3.40;;;23.30;54.00;;;;;;6265280;23;20369;-81
2021/10/08 00:24:12;;;;;;;4.90;2.87;;;23.30;54.00;;;;;;6264235;23;20369;-81
2021/10/08 00:29:59;;;;;;;4.37;2.90;;;23.30;54.00;;;;;;6259360;22;20412;-81
2021/10/08 00:32:25;;;;;;;4.80;2.93;;;23.20;53.90;;;;;;6233475;23;20370;-81
2021/10/08 00:34:51;;;;;;;3.50;2.60;;;23.20;54.00;;;;;;6207169;23;20166;-81
2021/10/08 00:37:17;;;;;;;3.90;2.97;;;23.20;53.90;;;;;;6207415;23;20186;-81
2021/10/08 00:39:43;;;;;;;4.07;3.67;;;23.20;54.00;;;;;;6207155;23;20162;-81
2021/10/08 00:42:09;;;;;;;4.27;2.67;;;23.20;53.90;;;;;;6207662;23;20845;-81
2021/10/08 00:44:34;;;;;;;3.83;2.63;;;23.20;54.00;;;;;;6232909;23;20154;-81
2021/10/08 00:47:00;;;;;;;3.43;2.43;;;23.30;54.00;;;;;;6205774;23;20162;-81
2021/10/08 00:49:26;;;;;;;3.40;2.30;;;23.20;54.00;;;;;;6231987;23;20481;-81
2021/10/08 00:51:52;;;;;;;3.60;2.27;;;23.20;54.00;;;;;;6206288;23;20405;-81
2021/10/08 00:54:20;;;;;;;4.70;2.50;;;23.20;54.00;;;;;;6232156;23;20151;-81
2021/10/08 00:56:49;;;;;;;4.10;2.80;;;23.20;53.90;;;;;;6205690;23;20179;-81
2021/10/08 00:59:14;;;;;;;3.77;2.53;;;23.20;53.90;;;;;;6205449;23;20432;-81
2021/10/08 01:01:40;;;;;;;4.60;2.60;;;23.20;53.90;;;;;;6205521;23;20382;-81
2021/10/08 01:04:08;;;;;;;3.27;2.30;;;23.20;53.90;;;;;;6206171;23;20147;-81
2021/10/08 01:06:34;;;;;;;3.27;2.33;;;23.20;54.00;;;;;;6206353;23;20162;-81
2021/10/08 01:09:00;;;;;;;4.10;2.70;;;23.20;53.90;;;;;;6206160;23;20390;-81
2021/10/08 01:11:26;;;;;;;3.63;2.27;;;23.20;54.00;;;;;;6205424;23;20162;-81
2021/10/08 01:13:55;;;;;;;3.70;2.60;;;23.20;54.00;;;;;;6232745;23;20143;-81
2021/10/08 01:16:24;;;;;;;3.67;2.40;;;23.20;54.00;;;;;;6205963;23;20425;-81
2021/10/08 01:18:50;;;;;;;6.37;2.80;;;23.20;54.00;;;;;;6204995;23;20386;-82
2021/10/08 01:21:16;;;;;;;3.47;2.60;;;23.20;54.00;;;;;;6206957;23;20466;-82
2021/10/08 01:23:41;;;;;;;3.03;2.30;;;23.20;54.00;;;;;;6206484;23;20155;-82
2021/10/08 01:26:16;;;;;;;2.83;2.53;;;23.20;54.00;;;;;;6206640;23;20590;-82
2021/10/08 01:28:54;;;;;;;3.10;2.50;;;23.20;54.00;;;;;;6232655;23;20131;-82
2021/10/08 01:31:20;;;;;;;2.47;2.17;;;23.20;54.00;;;;;;6253927;23;20400;-82
2021/10/08 01:40:33;;;;;;;3.03;2.17;;;23.20;54.00;;;;;;6170616;23;20699;-83
2021/10/08 01:42:59;;;;;;;3.00;2.20;;;23.10;54.00;;;;;;6122862;23;20395;-82
2021/10/08 01:45:25;;;;;;;2.87;2.07;;;23.10;54.00;;;;;;6145361;23;20422;-81
2021/10/08 01:47:51;;;;;;;2.80;1.97;;;23.10;54.00;;;;;;6169923;23;20376;-81
2021/10/08 01:50:19;;;;;;;2.83;2.27;;;23.10;54.00;;;;;;6144857;23;20411;-81
2021/10/08 01:52:45;;;;;;;3.00;1.83;;;23.10;54.00;;;;;;6145335;23;20252;-81
2021/10/08 01:55:11;;;;;;;2.90;2.57;;;23.10;54.00;;;;;;6169168;23;20380;-81
2021/10/08 01:57:37;;;;;;;2.90;2.60;;;23.10;54.00;;;;;;6143870;23;20235;-81
2021/10/08 02:00:04;;;;;;;3.37;2.20;;;23.20;54.00;;;;;;6144764;23;20216;-81
2021/10/08 02:02:30;;;;;;;2.57;2.37;;;23.20;54.10;;;;;;6144657;23;20148;-81
2021/10/08 02:04:56;;;;;;;2.27;2.07;;;23.20;54.10;;;;;;6145210;23;20380;-81
2021/10/08 02:07:21;;;;;;;3.23;2.30;;;23.10;54.00;;;;;;6197850;23;20154;-81
2021/10/08 02:09:47;;;;;;;2.10;1.83;;;23.20;54.10;;;;;;6261088;23;20158;-81
2021/10/08 02:12:13;;;;;;;1.87;1.67;;;23.10;54.00;;;;;;6235957;23;20160;-81
2021/10/08 02:14:39;;;;;;;2.50;2.20;;;23.20;54.10;;;;;;6235520;23;20181;-81
2021/10/08 02:20:27;;;;;;;4.40;2.10;;;23.20;54.00;;;;;;6261791;23;20138;-81
2021/10/08 02:22:53;;;;;;;3.67;2.10;;;23.10;54.00;;;;;;6235284;23;20385;-81
2021/10/08 02:25:19;;;;;;;2.80;2.10;;;23.10;54.00;;;;;;6235548;23;20384;-81
2021/10/08 02:27:45;;;;;;;1.90;1.70;;;23.10;54.00;;;;;;6234830;23;20233;-81
2021/10/08 02:30:11;;;;;;;2.73;2.00;;;23.10;54.00;;;;;;6261679;23;20161;-81
2021/10/08 02:32:37;;;;;;;2.40;1.93;;;23.10;54.00;;;;;;6235569;23;20141;-81
2021/10/08 02:35:03;;;;;;;2.17;1.80;;;23.10;54.00;;;;;;6262043;23;20373;-81
2021/10/08 02:37:29;;;;;;;3.10;2.20;;;23.10;54.00;;;;;;6235073;23;20174;-81
2021/10/08 02:39:57;;;;;;;2.90;2.10;;;23.10;54.00;;;;;;6235665;23;20409;-81
2021/10/08 02:42:23;;;;;;;2.23;1.90;;;23.10;54.00;;;;;;6235237;23;20146;-81
2021/10/08 02:44:49;;;;;;;2.70;2.40;;;23.10;54.00;;;;;;6262113;23;20400;-81
2021/10/08 02:47:17;;;;;;;3.50;2.20;;;23.10;54.00;;;;;;6262013;23;20154;-81
2021/10/08 02:49:44;;;;;;;2.30;2.10;;;23.10;54.00;;;;;;6234905;23;20161;-81
2021/10/08 02:52:12;;;;;;;2.10;1.70;;;23.10;54.00;;;;;;6234777;23;20389;-81
2021/10/08 02:54:41;;;;;;;2.63;2.00;;;23.10;54.00;;;;;;6235210;23;20380;-81
2021/10/08 02:57:07;;;;;;;2.30;1.70;;;23.10;54.00;;;;;;6234736;23;20498;-81
2021/10/08 02:59:33;;;;;;;2.77;1.87;;;23.10;54.00;;;;;;6262242;23;20852;-81
2021/10/08 03:01:59;;;;;;;2.40;1.80;;;23.10;54.00;;;;;;6235226;23;20157;-81
2021/10/08 03:04:24;;;;;;;2.20;1.80;;;23.10;54.60;;;;;;6233983;23;20508;-81
2021/10/08 03:06:50;;;;;;;2.10;1.90;;;23.10;54.00;;;;;;6234322;23;20161;-81
2021/10/08 03:09:16;;;;;;;2.70;1.80;;;23.10;54.00;;;;;;6234999;23;20238;-81
2021/10/08 03:11:42;;;;;;;2.77;1.87;;;23.10;54.00;;;;;;6236722;23;20173;-81
2021/10/08 03:14:09;;;;;;;1.90;1.70;;;23.10;54.00;;;;;;6236575;23;20154;-81
2021/10/08 03:16:34;;;;;;;2.90;2.10;;;23.10;54.00;;;;;;6236857;23;20432;-81
2021/10/08 03:19:00;;;;;;;3.00;2.23;;;23.10;54.00;;;;;;6235806;23;20385;-81
2021/10/08 03:21:26;;;;;;;2.40;1.60;;;23.10;54.00;;;;;;6235968;23;20180;-81
2021/10/08 03:23:55;;;;;;;1.97;1.77;;;23.10;54.00;;;;;;6237004;23;20204;-81
2021/10/08 03:26:21;;;;;;;3.87;2.10;;;23.10;54.00;;;;;;6263605;23;20178;-81
2021/10/08 03:28:46;;;;;;;2.43;1.80;;;23.10;54.00;;;;;;6237183;23;20704;-81
2021/10/08 03:31:13;;;;;;;2.13;1.73;;;23.10;54.00;;;;;;6236026;23;20673;-81
2021/10/08 03:33:39;;;;;;;2.60;1.97;;;23.10;54.00;;;;;;6262962;23;20200;-81
2021/10/08 03:36:07;;;;;;;2.30;2.00;;;23.10;54.00;;;;;;6236473;23;20423;-81
2021/10/08 03:38:34;;;;;;;1.73;1.43;;;23.10;54.00;;;;;;6237188;23;20381;-81
2021/10/08 03:43:28;;;;;;;3.20;2.13;;;23.10;54.00;;;;;;6263525;23;20396;-81
2021/10/08 03:46:08;;;;;;;2.00;1.63;;;23.10;54.00;;;;;;6237298;23;20392;-81
2021/10/08 03:48:59;;;;;;;2.80;1.97;;;23.10;54.00;;;;;;6234957;23;20504;-81
2021/10/08 03:51:23;;;;;;;2.23;1.90;;;23.00;53.90;;;;;;6262622;23;20388;-81
2021/10/08 03:53:49;;;;;;;3.83;2.00;;;23.10;54.00;;;;;;6236500;23;20384;-81
2021/10/08 03:56:15;;;;;;;3.13;1.87;;;23.00;53.90;;;;;;6235969;23;20421;-81
2021/10/08 03:58:44;;;;;;;1.93;1.70;;;23.00;54.00;;;;;;6235830;23;20484;-81
2021/10/08 04:01:10;;;;;;;2.27;1.90;;;23.00;53.90;;;;;;6236191;23;20157;-81
2021/10/08 04:03:35;;;;;;;2.07;1.67;;;23.00;53.90;;;;;;6263073;23;20373;-81
2021/10/08 04:06:01;;;;;;;2.60;2.13;;;23.00;54.00;;;;;;6261755;23;20220;-81
2021/10/08 04:08:27;;;;;;;1.90;1.70;;;23.00;54.00;;;;;;6236048;23;20154;-81
2021/10/08 04:10:53;;;;;;;2.27;1.60;;;23.00;53.90;;;;;;6263300;23;20151;-81
2021/10/08 04:13:19;;;;;;;1.90;1.53;;;23.00;53.90;;;;;;6236928;23;20447;-81
2021/10/08 04:19:07;;;;;;;2.73;1.83;;;23.00;53.90;;;;;;6264137;23;20206;-81
2021/10/08 04:21:34;;;;;;;1.97;1.60;;;23.00;54.00;;;;;;6236351;23;20362;-81
2021/10/08 04:24:15;;;;;;;3.53;1.97;;;23.00;54.00;;;;;;6241418;23;20147;-83
2021/10/08 04:26:41;;;;;;;3.10;1.90;;;23.00;53.90;;;;;;6240550;23;20377;-83
2021/10/08 04:29:10;;;;;;;2.53;1.73;;;22.90;53.90;;;;;;6240538;23;20408;-83
2021/10/08 04:31:35;;;;;;;2.03;1.70;;;23.00;53.90;;;;;;6241647;23;20423;-83
2021/10/08 04:34:02;;;;;;;3.63;1.70;;;23.00;54.00;;;;;;6241605;23;20389;-83
2021/10/08 04:36:27;;;;;;;2.90;1.70;;;23.00;53.90;;;;;;6268195;23;20413;-83
2021/10/08 04:38:55;;;;;;;2.90;2.17;;;23.00;53.90;;;;;;6267520;23;20369;-82
2021/10/08 04:41:21;;;;;;;3.30;1.90;;;23.00;53.90;;;;;;6238498;23;20147;-82
2021/10/08 04:43:46;;;;;;;2.83;1.90;;;23.00;53.90;;;;;;6265397;23;20377;-82
2021/10/08 04:49:00;;;;;;;2.50;1.60;;;23.00;53.90;;;;;;6268942;23;20141;-82
2021/10/08 04:54:49;;;;;;;2.00;1.60;;;23.00;53.90;;;;;;6267827;23;20480;-82
2021/10/08 04:57:17;;;;;;;2.23;1.60;;;23.00;54.00;;;;;;6216084;23;20432;-82
2021/10/08 04:59:43;;;;;;;2.33;2.00;;;23.00;54.00;;;;;;6241923;23;20412;-82
2021/10/08 05:02:13;;;;;;;2.33;1.77;;;23.00;54.00;;;;;;6240552;23;20384;-82
2021/10/08 05:04:44;;;;;;;3.20;1.63;;;23.00;54.00;;;;;;6264118;23;20674;-82
2021/10/08 05:07:15;;;;;;;2.37;1.70;;;23.00;54.00;;;;;;6215694;23;20389;-82
2021/10/08 05:09:46;;;;;;;2.03;1.83;;;23.00;53.90;;;;;;6268709;23;20365;-82
2021/10/08 05:12:17;;;;;;;2.10;1.53;;;23.00;53.90;;;;;;6216818;23;20385;-82
2021/10/08 05:14:49;;;;;;;2.53;1.67;;;23.00;53.90;;;;;;6242848;23;20422;-82
2021/10/08 05:17:15;;;;;;;1.60;1.50;;;23.00;54.00;;;;;;6243064;23;20413;-81
2021/10/08 05:19:41;;;;;;;1.93;1.50;;;23.00;53.90;;;;;;6241910;23;20386;-82
2021/10/08 05:22:09;;;;;;;1.97;1.60;;;23.10;54.00;;;;;;6268051;23;20401;-81
2021/10/08 05:24:41;;;;;;;1.60;1.30;;;23.00;53.90;;;;;;6240418;23;20396;-82
2021/10/08 05:27:09;;;;;;;4.20;1.47;;;23.00;53.90;;;;;;6241332;23;20476;-82
2021/10/08 05:29:35;;;;;;;2.80;1.30;;;23.00;53.90;;;;;;6241142;23;20389;-82
2021/10/08 05:32:01;;;;;;;1.80;1.33;;;23.10;54.00;;;;;;6267304;23;20400;-82
2021/10/08 05:34:27;;;;;;;2.30;1.90;;;23.00;53.90;;;;;;6241745;23;20396;-81
2021/10/08 05:36:56;;;;;;;2.83;1.57;;;23.00;53.90;;;;;;6241511;23;20472;-82
2021/10/08 05:39:23;;;;;;;1.73;1.30;;;23.10;54.00;;;;;;6266767;23;20156;-82
2021/10/08 05:41:49;;;;;;;1.70;1.40;;;23.00;53.90;;;;;;6240953;23;20385;-82
2021/10/08 05:44:19;;;;;;;1.83;1.60;;;23.00;53.90;;;;;;6242075;23;20385;-82
2021/10/08 05:46:46;;;;;;;1.87;1.60;;;23.10;54.00;;;;;;6242239;23;20521;-81
2021/10/08 05:49:23;;;;;;;2.60;1.57;;;23.00;53.90;;;;;;6243024;23;20385;-82
2021/10/08 05:51:52;;;;;;;3.83;1.90;;;23.10;54.00;;;;;;6242102;23;20409;-82
2021/10/08 05:54:27;;;;;;;1.77;1.63;;;23.00;53.90;;;;;;6238433;23;20385;-82
2021/10/08 05:57:38;;;;;;;1.90;1.60;;;23.10;54.00;;;;;;6242983;23;20413;-82
2021/10/08 06:00:19;;;;;;;1.57;1.47;;;23.10;54.00;;;;;;6266417;23;20381;-82
2021/10/08 06:02:48;;;;;;;2.13;1.50;;;23.00;53.90;;;;;;6266147;23;20362;-82
2021/10/08 06:05:19;;;;;;;1.80;1.33;;;23.00;54.50;;;;;;6237864;23;20389;-82
2021/10/08 06:07:49;;;;;;;3.03;1.47;;;23.00;53.90;;;;;;6265059;23;20358;-82
2021/10/08 06:10:22;;;;;;;1.73;1.20;;;23.00;53.90;;;;;;6239081;23;20377;-82
2021/10/08 06:12:49;;;;;;;1.90;1.30;;;23.00;53.90;;;;;;6238791;23;20381;-82
2021/10/08 06:15:16;;;;;;;1.73;1.50;;;23.00;53.90;;;;;;6238931;23;20381;-82
2021/10/08 06:17:46;;;;;;;1.93;1.37;;;23.00;54.00;;;;;;6212441;23;20441;-82
2021/10/08 06:20:12;;;;;;;2.53;1.60;;;23.00;53.90;;;;;;6238620;23;20444;-82
2021/10/08 06:22:40;;;;;;;1.83;1.43;;;23.10;54.60;;;;;;6264343;23;20389;-82
2021/10/08 06:25:09;;;;;;;1.87;1.53;;;23.10;54.00;;;;;;6265311;23;20373;-82
2021/10/08 06:27:39;;;;;;;1.90;1.60;;;23.10;54.00;;;;;;6238401;23;20373;-82
2021/10/08 06:30:07;;;;;;;1.97;1.60;;;23.10;54.00;;;;;;6238628;23;20378;-82
2021/10/08 06:32:33;;;;;;;1.77;1.53;;;23.10;54.60;;;;;;6265743;23;20437;-82
2021/10/08 06:35:02;;;;;;;1.90;1.70;;;23.10;54.00;;;;;;6264792;23;20431;-82
2021/10/08 06:37:28;;;;;;;2.73;1.30;;;23.10;54.00;;;;;;6238306;23;20475;-82
2021/10/08 06:39:54;;;;;;;2.10;1.40;;;23.10;54.00;;;;;;6264952;23;20366;-82
2021/10/08 06:42:24;;;;;;;1.70;1.30;;;23.10;54.00;;;;;;6238361;23;20153;-82
2021/10/08 06:44:54;;;;;;;1.80;1.40;;;23.10;54.00;;;;;;6264388;23;20130;-82
2021/10/08 06:47:19;;;;;;;2.63;1.90;;;23.10;54.00;;;;;;6238067;23;20385;-82
2021/10/08 06:49:46;;;;;;;2.00;1.30;;;23.10;54.00;;;;;;6265333;23;20761;-82
2021/10/08 06:52:11;;;;;;;1.87;1.43;;;23.10;54.00;;;;;;6238609;23;20395;-82
2021/10/08 06:54:37;;;;;;;3.03;2.00;;;23.10;54.00;;;;;;6264678;23;20369;-82
2021/10/08 06:57:03;;;;;;;2.17;1.40;;;23.10;54.00;;;;;;6238461;23;20185;-82
2021/10/08 06:59:29;;;;;;;4.40;1.67;;;23.10;54.00;;;;;;6237209;23;20150;-82
2021/10/08 07:01:55;;;;;;;2.40;1.70;;;23.10;54.00;;;;;;6239308;23;20373;-82
2021/10/08 07:04:21;;;;;;;3.37;1.67;;;23.10;54.00;;;;;;6239063;23;20150;-82
2021/10/08 07:06:50;;;;;;;3.03;1.50;;;23.10;54.00;;;;;;6265141;23;20161;-82
2021/10/08 07:09:21;;;;;;;2.03;1.80;;;23.10;54.00;;;;;;6238422;23;20381;-82
2021/10/08 07:11:47;;;;;;;2.50;1.70;;;23.10;54.00;;;;;;6213178;23;20381;-82
2021/10/08 07:14:13;;;;;;;3.10;1.80;;;23.10;54.00;;;;;;6237669;23;20389;-82
2021/10/08 07:16:40;;;;;;;4.20;1.63;;;23.10;54.00;;;;;;6237693;23;20265;-82
2021/10/08 07:19:12;;;;;;;2.70;1.50;;;23.10;54.00;;;;;;6264872;23;20146;-82
2021/10/08 07:21:39;;;;;;;2.17;1.63;;;23.10;54.00;;;;;;6265403;23;20350;-82
2021/10/08 07:24:05;;;;;;;2.87;1.50;;;23.10;54.00;;;;;;6264637;23;20376;-82
2021/10/08 07:26:32;;;;;;;2.00;1.67;;;23.10;54.00;;;;;;6264752;23;20377;-82
2021/10/08 07:29:05;;;;;;;4.63;2.03;;;23.10;54.00;;;;;;6265016;23;20437;-82
2021/10/08 07:31:31;;;;;;;2.40;1.77;;;23.10;54.00;;;;;;6213551;23;20872;-82
2021/10/08 07:34:01;;;;;;;5.17;2.50;;;23.10;54.00;;;;;;6238155;23;20389;-82
2021/10/08 07:36:30;;;;;;;3.40;1.80;;;23.10;54.00;;;;;;6265122;23;20417;-82
2021/10/08 07:39:00;;;;;;;4.73;2.10;;;23.10;54.00;;;;;;6265124;23;20380;-82
2021/10/08 07:41:32;;;;;;;3.57;2.30;;;23.10;54.00;;;;;;6238433;23;20370;-82
2021/10/08 07:44:09;;;;;;;3.27;2.03;;;23.10;54.00;;;;;;6238306;23;20404;-82
2021/10/08 07:49:57;;;;;;;3.50;2.13;;;23.10;54.00;;;;;;6202114;23;20366;-82
2021/10/08 07:52:23;;;;;;;4.17;2.23;;;23.10;54.00;;;;;;6202457;23;20375;-82
2021/10/08 07:55:13;;;;;;;4.27;2.60;;;23.10;54.10;;;;;;6201774;23;20379;-82
2021/10/08 07:57:44;;;;;;;3.13;1.90;;;23.10;54.00;;;;;;6203951;23;20410;-82
2021/10/08 08:00:11;;;;;;;2.13;1.70;;;23.10;54.10;;;;;;6179099;23;20375;-82
2021/10/08 08:02:37;;;;;;;6.37;3.60;;;23.10;54.10;;;;;;6179304;23;20382;-82
2021/10/08 08:05:06;;;;;;;2.70;2.20;;;23.10;54.10;;;;;;6178966;23;20379;-82
2021/10/08 08:07:40;;;;;;;3.10;1.80;;;23.10;54.00;;;;;;6180075;23;20387;-82
2021/10/08 08:10:08;;;;;;;2.80;1.70;;;23.10;54.00;;;;;;6179514;23;20379;-82
2021/10/08 08:12:35;;;;;;;3.60;2.27;;;23.10;54.00;;;;;;6178997;23;20379;-82
2021/10/08 08:15:02;;;;;;;6.70;2.20;;;23.10;54.00;;;;;;6179130;23;20387;-82
2021/10/08 08:17:35;;;;;;;5.50;2.50;;;23.20;54.10;;;;;;6233045;23;20421;-82
2021/10/08 08:20:01;;;;;;;3.90;2.23;;;23.20;54.10;;;;;;6265849;23;20369;-82
2021/10/08 08:22:27;;;;;;;4.60;2.70;;;23.20;54.10;;;;;;6266111;23;20369;-83
2021/10/08 08:24:53;;;;;;;5.97;2.50;;;23.20;54.10;;;;;;6189469;23;20390;-83
2021/10/08 08:27:19;;;;;;;4.37;2.23;;;23.10;54.00;;;;;;6266145;23;20381;-82
2021/10/08 08:29:45;;;;;;;4.80;2.30;;;23.20;54.10;;;;;;6265916;23;20177;-82
2021/10/08 08:32:25;;;;;;;4.83;2.23;;;23.20;54.10;;;;;;6239340;23;20258;-83
2021/10/08 08:34:51;;;;;;;7.30;3.10;;;23.20;54.10;;;;;;6265830;23;20400;-84
2021/10/08 08:37:17;;;;;;;4.67;2.70;;;23.10;54.10;;;;;;6239654;23;20417;-84
2021/10/08 08:39:45;;;;;;;7.60;2.73;;;23.20;54.10;;;;;;6239003;23;20184;-82
2021/10/08 08:42:10;;;;;;;5.60;2.80;;;23.20;54.20;;;;;;6239268;23;20206;-83
2021/10/08 08:44:37;;;;;;;4.77;2.37;;;23.20;54.20;;;;;;6239412;23;20405;-81
2021/10/08 08:47:05;;;;;;;5.20;3.33;;;23.20;54.20;;;;;;6238949;23;20155;-83
2021/10/08 08:49:36;;;;;;;5.50;2.77;;;23.20;54.20;;;;;;6266034;23;20374;-83
2021/10/08 08:52:06;;;;;;;6.90;2.70;;;23.20;54.20;;;;;;6260699;23;20378;-83
2021/10/08 08:54:34;;;;;;;5.90;2.50;;;23.20;54.20;;;;;;6239013;23;20875;-82
2021/10/08 08:57:10;;;;;;;6.87;2.63;;;23.20;54.20;;;;;;6237582;23;20417;-82
2021/10/08 08:59:58;;;;;;;5.67;2.23;;;23.20;54.20;;;;;;6237666;23;20419;-82
2021/10/08 09:02:30;;;;;;;4.23;2.80;;;23.20;54.10;;;;;;6263949;23;20354;-82
2021/10/08 09:04:55;;;;;;;4.83;2.67;;;23.20;54.20;;;;;;6237372;23;20373;-82
2021/10/08 09:07:37;;;;;;;3.00;2.40;;;23.20;54.20;;;;;;6237133;23;20388;-83
2021/10/08 09:10:13;;;;;;;5.87;3.07;;;23.20;54.20;;;;;;6237121;23;20392;-82
2021/10/08 09:12:40;;;;;;;4.70;2.83;;;23.20;54.20;;;;;;6264186;23;20377;-83
2021/10/08 09:15:08;;;;;;;6.20;3.30;;;23.20;54.20;;;;;;6263869;23;20378;-83
2021/10/08 09:17:35;;;;;;;10.23;2.97;;;23.20;54.20;;;;;;6264794;23;20888;-83
2021/10/08 09:20:07;;;;;;;5.57;3.77;;;23.20;54.20;;;;;;6237307;23;20413;-82
2021/10/08 09:22:45;;;;;;;8.30;4.73;;;23.20;54.20;;;;;;6237985;23;20701;-82
2021/10/08 09:25:16;;;;;;;11.20;6.40;;;23.20;54.20;;;;;;6236401;23;20373;-83
2021/10/08 09:34:31;;;;;;;14.13;8.40;;;23.20;54.20;;;;;;6263357;23;20451;-82
2021/10/08 09:37:01;;;;;;;16.27;8.87;;;23.10;54.20;;;;;;6236512;23;20429;-82
2021/10/08 09:39:33;;;;;;;8.83;7.30;;;23.10;54.20;;;;;;6236664;23;20473;-82
2021/10/08 09:42:11;;;;;;;11.37;7.83;;;23.10;54.20;;;;;;6263553;23;20432;-83
2021/10/08 09:44:47;;;;;;;12.70;8.03;;;23.20;54.30;;;;;;6237317;23;20381;-83
2021/10/08 09:47:19;;;;;;;7.40;5.97;;;23.20;54.30;;;;;;6236512;23;20388;-82
2021/10/08 09:49:50;;;;;;;11.77;7.13;;;23.20;54.80;;;;;;6263632;23;20404;-83
2021/10/08 09:52:28;;;;;;;13.03;7.83;;;23.20;54.30;;;;;;6262961;23;20373;-83
2021/10/08 09:55:06;;;;;;;12.33;7.47;;;23.20;54.30;;;;;;6236827;23;20416;-83
2021/10/08 09:57:48;;;;;;;14.90;7.97;;;23.20;54.30;;;;;;6236639;23;20425;-83
2021/10/08 10:00:33;;;;;;;17.07;7.83;;;23.20;54.30;;;;;;6236981;23;20412;-83
2021/10/08 10:03:04;;;;;;;10.20;7.77;;;23.20;54.30;;;;;;6237212;23;20377;-83
2021/10/08 10:05:31;;;;;;;11.67;8.00;;;23.20;54.30;;;;;;6237158;23;20377;-83
2021/10/08 10:07:57;;;;;;;12.70;8.03;;;23.20;54.30;;;;;;6236332;23;20391;-83
2021/10/08 10:10:26;;;;;;;14.90;8.67;;;23.20;54.30;;;;;;6264596;23;20377;-82
2021/10/08 10:12:54;;;;;;;12.10;7.70;;;23.20;54.30;;;;;;6212151;23;20389;-83
2021/10/08 10:15:24;;;;;;;12.40;8.20;;;23.20;54.30;;;;;;6263775;23;20433;-83
2021/10/08 10:17:51;;;;;;;14.10;8.33;;;23.20;54.20;;;;;;6263944;23;20476;-83
2021/10/08 10:20:19;;;;;;;16.53;8.60;;;23.20;54.20;;;;;;6263925;23;20380;-83
2021/10/08 10:22:48;;;;;;;11.80;7.53;;;23.20;54.20;;;;;;6237731;23;20385;-83
2021/10/08 10:25:16;;;;;;;16.23;8.20;;;23.20;54.20;;;;;;6237430;23;20381;-83
2021/10/08 10:27:44;;;;;;;10.63;7.20;;;23.20;54.20;;;;;;6213065;23;20401;-83
2021/10/08 10:30:10;;;;;;;11.73;7.30;;;23.20;54.20;;;;;;6238356;23;20381;-83
2021/10/08 10:32:37;;;;;;;10.20;6.87;;;23.20;54.20;;;;;;6238236;23;20385;-83
2021/10/08 10:35:26;;;;;;;11.60;7.10;;;23.20;54.20;;;;;;6265291;23;20445;-83
2021/10/08 10:37:53;;;;;;;16.53;9.10;;;23.30;54.20;;;;;;6238107;23;20439;-83
2021/10/08 10:40:24;;;;;;;11.00;7.97;;;23.20;54.20;;;;;;6238429;23;20397;-83
2021/10/08 10:43:15;;;;;;;13.20;7.27;;;23.30;54.20;;;;;;6238897;23;20385;-83
2021/10/08 10:45:48;;;;;;;9.43;7.20;;;23.30;54.20;;;;;;6237883;23;20407;-83
2021/10/08 10:48:24;;;;;;;10.63;6.87;;;23.20;54.20;;;;;;6263800;23;20448;-83
2021/10/08 10:51:20;;;;;;;13.23;7.53;;;23.20;54.20;;;;;;6263218;23;20345;-83
2021/10/08 10:53:49;;;;;;;11.60;7.80;;;23.30;54.20;;;;;;6237399;23;20381;-83
2021/10/08 10:56:41;;;;;;;9.43;6.03;;;23.20;54.20;;;;;;6263128;23;20421;-83
2021/10/08 10:59:27;;;;;;;8.60;6.20;;;23.30;54.20;;;;;;6235772;23;20377;-83
2021/10/08 11:02:25;;;;;;;12.57;7.10;;;23.20;54.20;;;;;;6240427;23;20442;-83
2021/10/08 11:05:36;;;;;;;9.23;7.20;;;23.20;54.20;;;;;;6238258;23;20392;-82
2021/10/08 11:08:28;;;;;;;12.77;7.17;;;23.20;54.20;;;;;;6144436;23;20895;-82
2021/10/08 11:11:00;;;;;;;11.30;6.60;;;23.20;54.20;;;;;;6240576;23;20381;-82
2021/10/08 11:13:36;;;;;;;9.40;6.90;;;23.20;54.30;;;;;;6267237;23;20365;-83
2021/10/08 11:16:07;;;;;;;9.70;7.30;;;23.20;54.30;;;;;;6242001;23;20424;-82
2021/10/08 11:18:50;;;;;;;11.03;6.77;;;23.20;54.30;;;;;;6268222;23;20425;-82
2021/10/08 11:21:35;;;;;;;13.10;7.00;;;23.20;54.20;;;;;;6216715;23;20387;-82
2021/10/08 11:24:21;;;;;;;9.97;6.77;;;23.20;54.20;;;;;;6241349;23;20381;-82
2021/10/08 11:26:57;;;;;;;9.90;6.97;;;23.30;54.30;;;;;;6266971;23;20464;-82
2021/10/08 11:29:27;;;;;;;10.77;6.80;;;23.20;54.20;;;;;;6266871;23;20417;-82
2021/10/08 11:32:11;;;;;;;10.63;6.80;;;23.20;54.30;;;;;;6241438;23;20393;-82
2021/10/08 11:34:51;;;;;;;11.53;6.23;;;23.30;54.30;;;;;;6268537;23;20412;-82
2021/10/08 11:37:17;;;;;;;11.47;6.87;;;23.30;54.30;;;;;;6241807;23;20917;-83
2021/10/08 11:39:45;;;;;;;8.67;5.93;;;23.30;54.40;;;;;;6242972;23;20709;-82
2021/10/08 11:42:15;;;;;;;7.13;5.77;;;23.30;54.30;;;;;;6269748;23;20369;-81
2021/10/08 11:47:30;;;;;;;7.63;6.43;;;23.30;54.30;;;;;;6268950;23;20376;-82
2021/10/08 11:52:49;;;;;;;8.80;6.10;;;23.30;54.40;;;;;;6269899;23;20361;-81
2021/10/08 11:55:25;;;;;;;8.97;6.50;;;23.30;54.40;;;;;;6238713;23;20680;-82
2021/10/08 11:58:00;;;;;;;9.87;6.40;;;23.30;54.40;;;;;;6236118;23;20455;-81
2021/10/08 12:00:44;;;;;;;10.37;6.77;;;23.30;54.40;;;;;;6262594;23;20441;-81
2021/10/08 12:03:25;;;;;;;8.37;6.90;;;23.30;54.40;;;;;;6235367;23;20391;-81
2021/10/08 12:05:57;;;;;;;6.10;5.50;;;23.30;54.40;;;;;;6262424;23;20381;-81
2021/10/08 12:08:30;;;;;;;8.97;6.10;;;23.30;54.40;;;;;;6235435;23;20413;-81
2021/10/08 12:11:03;;;;;;;8.10;5.77;;;23.30;54.40;;;;;;6236548;23;20376;-81
2021/10/08 12:13:44;;;;;;;9.90;6.13;;;23.30;54.40;;;;;;6263259;23;20407;-82
2021/10/08 12:16:13;;;;;;;9.50;6.53;;;23.30;54.40;;;;;;6242368;23;20447;-82
2021/10/08 12:18:54;;;;;;;7.10;5.87;;;23.30;54.40;;;;;;6241613;23;20394;-83
2021/10/08 12:21:26;;;;;;;8.33;6.03;;;23.30;54.40;;;;;;6242054;23;20389;-82
2021/10/08 12:24:16;;;;;;;7.87;5.90;;;23.30;54.40;;;;;;6217404;23;20370;-82
2021/10/08 12:27:12;;;;;;;10.60;6.90;;;23.30;54.40;;;;;;6216534;23;20381;-82
2021/10/08 12:29:51;;;;;;;6.00;5.40;;;23.30;54.40;;;;;;6116656;23;20518;-82
2021/10/08 12:32:24;;;;;;;7.13;5.87;;;23.30;54.40;;;;;;6068356;23;20393;-82
2021/10/08 12:35:12;;;;;;;7.50;5.70;;;23.30;54.40;;;;;;6091475;23;20421;-82
2021/10/08 12:37:59;;;;;;;10.40;6.60;;;23.30;54.40;;;;;;6116322;23;20417;-83
2021/10/08 12:40:34;;;;;;;5.93;5.33;;;23.30;54.40;;;;;;6092101;23;20386;-82
2021/10/08 12:43:19;;;;;;;7.97;6.03;;;23.20;54.40;;;;;;6115273;23;20361;-82
2021/10/08 12:46:20;;;;;;;8.33;5.80;;;23.20;54.40;;;;;;6091927;23;20403;-83
2021/10/08 12:49:31;;;;;;;8.33;4.90;;;23.30;54.40;;;;;;6013484;23;20396;-83
2021/10/08 12:52:04;;;;;;;7.10;6.07;;;23.30;54.40;;;;;;6092229;23;20453;-82
2021/10/08 12:54:39;;;;;;;6.23;5.50;;;23.20;54.40;;;;;;6117021;23;20390;-82
2021/10/08 12:57:08;;;;;;;7.43;5.70;;;23.20;54.40;;;;;;6092553;23;20425;-82
2021/10/08 12:59:56;;;;;;;7.17;5.90;;;23.20;54.40;;;;;;6114984;23;20382;-82
2021/10/08 13:02:43;;;;;;;8.37;6.20;;;23.20;54.40;;;;;;6115437;23;20415;-82
2021/10/08 13:05:48;;;;;;;7.17;6.27;;;23.20;54.40;;;;;;6141026;23;20361;-82
2021/10/08 13:08:23;;;;;;;7.30;6.13;;;23.30;54.40;;;;;;6219028;23;20430;-83
2021/10/08 13:11:04;;;;;;;9.90;7.00;;;23.20;54.40;;;;;;6267601;23;20372;-82
2021/10/08 13:13:50;;;;;;;7.97;6.60;;;23.20;54.40;;;;;;6241453;23;20443;-82
2021/10/08 13:16:32;;;;;;;7.70;6.77;;;23.20;54.40;;;;;;6240549;23;20515;-82
2021/10/08 13:19:04;;;;;;;8.57;6.73;;;23.20;54.40;;;;;;6220112;23;20381;-82
2021/10/08 13:21:33;;;;;;;8.87;6.03;;;23.20;54.40;;;;;;6240264;23;20416;-83
2021/10/08 13:23:59;;;;;;;6.33;5.73;;;23.20;54.40;;;;;;6240890;23;20412;-83
2021/10/08 13:26:25;;;;;;;8.10;6.60;;;23.20;54.30;;;;;;6266601;23;20373;-82
2021/10/08 13:28:52;;;;;;;6.20;5.60;;;23.20;54.30;;;;;;6239165;23;20189;-83
2021/10/08 13:34:42;;;;;;;7.40;6.43;;;23.30;54.40;;;;;;6263400;22;20399;-83
2021/10/08 13:37:11;;;;;;;7.30;5.90;;;23.30;54.40;;;;;;6240279;23;20425;-83
2021/10/08 13:39:38;;;;;;;8.63;7.10;;;23.30;54.40;;;;;;6240631;23;20381;-82
2021/10/08 13:42:04;;;;;;;7.33;6.40;;;23.20;54.30;;;;;;6239898;23;20385;-82
2021/10/08 13:44:30;;;;;;;9.50;6.20;;;23.30;54.40;;;;;;6240418;23;20385;-83
2021/10/08 13:50:28;;;;;;;6.60;5.90;;;23.30;54.30;;;;;;6266112;23;20155;-83
2021/10/08 13:52:54;;;;;;;9.90;7.33;;;23.20;54.30;;;;;;6240136;23;20399;-83